createdAt,value
2022-10-12T00:01:45.310Z,4.57
2022-10-12T00:04:33.607Z,5.30
2022-10-12T00:07:24.359Z,4.95
2022-10-12T00:10:12.333Z,5.40
2022-10-12T00:13:00.943Z,5.28
2022-10-12T00:15:49.167Z,5.30
2022-10-12T00:18:38.083Z,5.70
2022-10-12T00:21:30.143Z,4.82
2022-10-12T00:24:18.060Z,4.47
2022-10-12T00:27:05.875Z,5.32
2022-10-12T00:29:53.728Z,5.20
2022-10-12T00:32:42.029Z,4.82
2022-10-12T00:35:29.931Z,5.45
2022-10-12T00:38:17.818Z,5.32
2022-10-12T00:41:06.024Z,5.30
2022-10-12T00:43:58.173Z,5.07
2022-10-12T00:46:49.740Z,5.38
2022-10-12T00:49:37.913Z,5.53
2022-10-12T00:52:54.321Z,4.35
2022-10-12T00:55:51.526Z,4.60
2022-10-12T00:58:39.545Z,4.47
2022-10-12T01:01:28.200Z,4.88
2022-10-12T01:04:16.308Z,4.15
2022-10-12T01:07:04.267Z,4.30
2022-10-12T01:09:52.705Z,4.78
2022-10-12T01:12:43.317Z,4.43
2022-10-12T01:16:09.063Z,4.90
2022-10-12T01:19:30.093Z,4.70
2022-10-12T01:22:20.744Z,5.20
2022-10-12T01:25:34.729Z,4.93
2022-10-12T01:28:49.166Z,5.22
2022-10-12T01:31:46.530Z,5.03
2022-10-12T01:35:22.706Z,5.47
2022-10-12T01:38:54.428Z,4.90
2022-10-12T01:41:58.649Z,4.72
2022-10-12T01:44:46.633Z,4.95
2022-10-12T01:47:35.796Z,4.97
2022-10-12T01:50:37.471Z,4.93
2022-10-12T01:53:46.233Z,5.68
2022-10-12T01:56:58.055Z,4.05
2022-10-12T02:00:08.141Z,5.93
2022-10-12T02:03:21.817Z,5.13
2022-10-12T02:06:18.707Z,5.82
2022-10-12T02:09:26.420Z,5.68
2022-10-12T02:12:22.505Z,5.55
2022-10-12T02:15:12.047Z,6.13
2022-10-12T02:18:03.455Z,6.10
2022-10-12T02:20:53.991Z,6.53
2022-10-12T02:23:43.733Z,6.25
2022-10-12T02:26:34.703Z,6.53
2022-10-12T02:29:29.017Z,6.68
2022-10-12T02:32:54.846Z,7.00
2022-10-12T02:36:01.868Z,6.00
2022-10-12T02:39:03.102Z,7.03
2022-10-12T02:41:54.930Z,5.90
2022-10-12T02:44:43.728Z,6.20
2022-10-12T02:47:33.177Z,6.55
2022-10-12T02:50:22.960Z,6.97
2022-10-12T02:53:12.620Z,5.90
2022-10-12T02:56:12.589Z,6.32
2022-10-12T02:59:00.645Z,6.40
2022-10-12T03:01:48.686Z,5.70
2022-10-12T03:04:37.446Z,5.60
2022-10-12T03:07:25.436Z,6.13
2022-10-12T03:10:15.106Z,5.32
2022-10-12T03:13:03.532Z,6.07
2022-10-12T03:15:53.807Z,6.40
2022-10-12T03:18:41.689Z,5.20
2022-10-12T03:21:39.890Z,5.82
2022-10-12T03:24:27.916Z,6.20
2022-10-12T03:27:15.900Z,5.72
2022-10-12T03:30:04.183Z,6.40
2022-10-12T03:32:52.036Z,5.70
2022-10-12T03:35:44.588Z,6.20
2022-10-12T03:38:32.407Z,5.97
2022-10-12T03:41:20.294Z,6.68
2022-10-12T03:44:08.277Z,6.07
2022-10-12T03:46:59.276Z,5.78
2022-10-12T03:49:47.232Z,6.53
2022-10-12T03:52:35.034Z,7.72
2022-10-12T03:55:23.745Z,6.82
2022-10-12T03:58:12.650Z,7.15
2022-10-12T04:01:00.589Z,7.20
2022-10-12T04:03:48.631Z,7.55
2022-10-12T04:06:36.451Z,6.50
2022-10-12T04:09:24.480Z,8.35
2022-10-12T04:12:12.344Z,8.00
2022-10-12T04:15:00.255Z,7.50
2022-10-12T04:17:48.282Z,7.18
2022-10-12T04:20:36.115Z,7.80
2022-10-12T04:23:24.015Z,7.60
2022-10-12T04:26:11.930Z,7.57
2022-10-12T04:28:59.841Z,7.38
2022-10-12T04:31:47.638Z,7.80
2022-10-12T04:34:36.740Z,7.32
2022-10-12T04:37:26.977Z,7.93
2022-10-12T04:40:14.805Z,8.85
2022-10-12T04:43:02.631Z,9.45
2022-10-12T04:45:58.886Z,9.20
2022-10-12T04:48:46.897Z,8.85
2022-10-12T04:51:34.802Z,8.90
2022-10-12T04:54:22.638Z,9.23
2022-10-12T04:57:13.111Z,9.13
2022-10-12T05:00:00.993Z,8.55
2022-10-12T05:02:48.996Z,8.27
2022-10-12T05:05:37.044Z,8.60
2022-10-12T05:08:24.987Z,7.97
2022-10-12T05:11:13.039Z,7.75
2022-10-12T05:14:00.871Z,7.53
2022-10-12T05:16:48.819Z,7.85
2022-10-12T05:19:36.620Z,8.25
2022-10-12T05:22:24.412Z,8.18
2022-10-12T05:25:12.552Z,8.07
2022-10-12T05:28:00.420Z,7.75
2022-10-12T05:30:52.998Z,8.30
2022-10-12T05:33:43.960Z,7.82
2022-10-12T05:36:35.653Z,8.82
2022-10-12T05:39:28.515Z,7.63
2022-10-12T05:42:24.592Z,8.82
2022-10-12T05:45:16.265Z,7.97
2022-10-12T05:48:10.547Z,8.45
2022-10-12T05:51:04.609Z,8.75
2022-10-12T05:57:16.129Z,8.30
2022-10-12T06:00:09.157Z,9.15
2022-10-12T06:03:09.563Z,9.82
2022-10-12T06:05:58.296Z,8.65
2022-10-12T06:08:53.117Z,8.77
2022-10-12T06:11:58.635Z,8.48
2022-10-12T06:14:53.072Z,8.32
2022-10-12T06:17:54.466Z,8.40
2022-10-12T06:21:21.055Z,8.88
2022-10-12T06:25:14.866Z,7.80
2022-10-12T06:28:55.202Z,8.27
2022-10-12T06:32:06.538Z,7.15
2022-10-12T06:35:22.337Z,8.07
2022-10-12T06:38:37.484Z,7.40
2022-10-12T06:45:34.057Z,7.65
2022-10-12T06:48:36.271Z,6.57
2022-10-12T06:52:15.052Z,6.85
2022-10-12T06:56:14.125Z,8.05
2022-10-12T07:00:18.776Z,7.80
2022-10-12T07:02:57.821Z,7.87
2022-10-12T07:06:02.208Z,8.02
2022-10-12T07:12:25.071Z,8.68
2022-10-12T07:20:11.016Z,8.10
2022-10-12T07:25:41.453Z,8.38
2022-10-12T07:28:30.127Z,7.78
2022-10-12T07:31:45.652Z,6.97
2022-10-12T07:38:45.429Z,6.38
2022-10-12T07:41:33.993Z,5.97
2022-10-12T07:44:28.428Z,6.38
2022-10-12T07:47:18.126Z,6.10
2022-10-12T07:50:07.184Z,5.85
2022-10-12T07:52:55.334Z,5.88
2022-10-12T07:55:49.314Z,5.95
2022-10-12T07:58:53.412Z,5.70
2022-10-12T08:01:52.896Z,5.75
2022-10-12T08:07:56.158Z,5.93
2022-10-12T08:10:45.123Z,6.30
2022-10-12T08:13:45.907Z,5.25
2022-10-12T08:16:34.365Z,5.38
2022-10-12T08:19:33.019Z,5.45
2022-10-12T08:22:29.935Z,5.10
2022-10-12T08:25:27.246Z,5.35
2022-10-12T08:28:29.988Z,5.43
2022-10-12T08:42:17.850Z,4.28
2022-10-12T08:45:38.609Z,3.80
2022-10-12T08:48:59.212Z,4.63
2022-10-12T08:53:17.550Z,4.25
2022-10-12T08:56:11.749Z,5.25
2022-10-12T08:59:39.913Z,5.38
2022-10-12T09:02:55.233Z,4.07
2022-10-12T09:06:32.844Z,4.68
2022-10-12T09:10:32.672Z,3.72
2022-10-12T09:13:51.884Z,4.25
2022-10-12T09:16:55.419Z,4.25
2022-10-12T09:19:53.100Z,3.30
2022-10-12T09:23:17.460Z,4.28
2022-10-12T09:26:21.912Z,3.90
2022-10-12T09:34:36.488Z,4.75
2022-10-12T09:37:10.983Z,4.00
2022-10-12T09:40:31.603Z,4.43
2022-10-12T09:48:18.746Z,4.95
2022-10-12T09:51:17.796Z,4.40
2022-10-12T09:55:09.723Z,5.13
2022-10-12T09:58:32.218Z,5.50
2022-10-12T10:02:06.336Z,4.65
2022-10-12T10:06:14.852Z,5.22
2022-10-12T10:10:00.642Z,6.78
2022-10-12T10:13:09.677Z,5.82
2022-10-12T10:17:05.667Z,6.45
2022-10-12T10:24:57.537Z,6.75
2022-10-12T10:29:14.416Z,8.13
2022-10-12T10:38:07.180Z,6.50
2022-10-12T10:45:23.213Z,7.97
2022-10-12T10:55:51.342Z,8.48
2022-10-12T10:59:09.760Z,8.05
2022-10-12T11:02:37.685Z,7.68
2022-10-12T11:18:30.978Z,7.50
2022-10-12T11:26:10.619Z,7.75
2022-10-12T11:29:11.397Z,8.85
2022-10-12T11:32:41.863Z,8.02
2022-10-12T11:35:45.665Z,7.68
2022-10-12T12:00:45.963Z,7.05
2022-10-12T12:04:48.927Z,6.72
2022-10-12T12:07:43.038Z,7.63
2022-10-12T12:15:15.989Z,7.45
2022-10-12T12:18:39.461Z,7.95
2022-10-12T12:31:05.791Z,7.13
2022-10-12T12:35:00.304Z,7.15
2022-10-12T12:48:57.086Z,8.63
2022-10-12T13:01:45.450Z,9.07
2022-10-12T13:49:01.287Z,10.70
2022-10-12T13:52:14.148Z,10.32
2022-10-12T13:59:23.923Z,11.02
2022-10-12T14:03:43.363Z,10.48
2022-10-12T14:14:40.425Z,10.68
2022-10-12T14:17:37.381Z,10.65
2022-10-12T14:21:32.176Z,10.93
2022-10-12T14:24:24.953Z,10.95
2022-10-12T14:27:24.717Z,10.73
2022-10-12T14:30:39.252Z,11.55
2022-10-12T14:33:35.515Z,11.00
2022-10-12T14:36:26.330Z,11.75
2022-10-12T14:39:14.924Z,11.55
2022-10-12T14:42:36.533Z,11.98
2022-10-12T14:45:26.058Z,12.32
2022-10-12T14:48:25.152Z,11.95
2022-10-12T14:51:18.403Z,12.05
2022-10-12T14:54:06.836Z,11.47
2022-10-12T14:56:55.229Z,12.20
2022-10-12T14:59:43.568Z,12.65
2022-10-12T15:02:33.268Z,11.48
2022-10-12T15:05:23.989Z,12.10
2022-10-12T15:08:12.074Z,12.88
2022-10-12T15:11:06.057Z,12.57
2022-10-12T15:13:54.552Z,13.07
2022-10-12T15:16:45.409Z,12.68
2022-10-12T15:19:38.442Z,13.20
2022-10-12T15:22:27.841Z,13.43
2022-10-12T15:25:33.184Z,12.07
2022-10-12T15:28:24.599Z,14.15
2022-10-12T15:31:18.396Z,13.32
2022-10-12T15:34:13.944Z,12.63
2022-10-12T15:37:06.490Z,14.25
2022-10-12T15:39:58.381Z,14.18
2022-10-12T15:42:50.791Z,14.38
2022-10-12T15:45:41.074Z,14.27
2022-10-12T15:48:29.760Z,15.18
2022-10-12T15:51:25.501Z,15.25
2022-10-12T15:54:17.336Z,15.13
2022-10-12T15:57:07.795Z,15.27
2022-10-12T16:00:08.802Z,15.30
2022-10-12T16:03:04.020Z,16.13
2022-10-12T16:05:52.476Z,15.88
2022-10-12T16:08:40.746Z,16.58
2022-10-12T16:11:29.046Z,15.23
2022-10-12T16:14:17.421Z,15.25
2022-10-12T16:17:05.918Z,15.98
2022-10-12T16:20:02.925Z,15.38
2022-10-12T16:22:56.200Z,15.30
2022-10-12T16:31:20.643Z,15.52
2022-10-12T16:34:11.634Z,16.77
2022-10-12T16:37:01.131Z,16.23
2022-10-12T16:39:52.698Z,17.10
2022-10-12T16:42:41.157Z,17.13
2022-10-12T16:45:29.518Z,17.33
2022-10-12T16:48:17.748Z,17.60
2022-10-12T16:51:11.313Z,18.50
2022-10-12T16:53:59.695Z,17.83
2022-10-12T16:56:47.758Z,18.52
2022-10-12T16:59:35.832Z,17.88
2022-10-12T17:02:23.728Z,19.25
2022-10-12T17:05:11.660Z,18.98
2022-10-12T17:08:00.018Z,17.77
2022-10-12T17:10:47.870Z,20.00
2022-10-12T17:13:42.228Z,19.83
2022-10-12T17:16:50.883Z,19.42
2022-10-12T17:19:41.006Z,18.23
2022-10-12T17:22:29.055Z,18.83
2022-10-12T17:25:17.147Z,19.65
2022-10-12T17:28:05.350Z,20.52
2022-10-12T17:30:53.439Z,20.80
2022-10-12T17:33:41.381Z,20.15
2022-10-12T17:36:29.334Z,20.42
2022-10-12T17:39:18.433Z,19.90
2022-10-12T17:42:06.822Z,21.48
2022-10-12T17:44:54.683Z,21.73
2022-10-12T17:47:42.608Z,22.48
2022-10-12T17:50:30.522Z,22.38
2022-10-12T17:53:18.421Z,24.00
2022-10-12T17:56:09.334Z,25.25
2022-10-12T17:59:01.110Z,24.13
2022-10-12T18:01:50.397Z,23.77
2022-10-12T18:04:38.545Z,22.70
2022-10-12T18:07:26.606Z,24.83
2022-10-12T18:10:14.669Z,22.35
2022-10-12T18:13:02.675Z,23.17
2022-10-12T18:15:50.569Z,22.23
2022-10-12T18:18:39.282Z,21.05
2022-10-12T18:21:30.073Z,21.77
2022-10-12T18:24:18.136Z,22.58
2022-10-12T18:27:07.014Z,23.17
2022-10-12T18:29:56.262Z,23.95
2022-10-12T18:32:44.418Z,24.05
2022-10-12T18:35:38.095Z,23.58
2022-10-12T18:38:33.956Z,24.50
2022-10-12T18:41:28.001Z,23.77
2022-10-12T18:44:15.971Z,25.77
2022-10-12T18:47:06.818Z,25.58
2022-10-12T18:49:54.674Z,27.55
2022-10-12T18:52:50.728Z,26.52
2022-10-12T18:55:39.158Z,27.40
2022-10-12T18:58:27.105Z,25.60
2022-10-12T19:01:21.999Z,23.55
2022-10-12T19:04:10.148Z,24.85
2022-10-12T19:06:58.070Z,25.60
2022-10-12T19:09:45.893Z,25.77
2022-10-12T19:12:36.207Z,23.60
2022-10-12T19:15:26.196Z,24.98
2022-10-12T19:18:14.063Z,25.50
2022-10-12T19:21:12.574Z,26.13
2022-10-12T19:24:05.864Z,24.27
2022-10-12T19:26:54.106Z,25.05
2022-10-12T19:29:45.647Z,25.73
2022-10-12T19:32:37.225Z,26.88
2022-10-12T19:35:28.774Z,26.23
2022-10-12T19:38:16.948Z,28.25
2022-10-12T19:41:05.251Z,28.10
2022-10-12T19:43:53.937Z,26.75
2022-10-12T19:46:42.876Z,28.02
2022-10-12T19:49:36.962Z,29.17
2022-10-12T19:52:29.976Z,26.90
2022-10-12T19:55:18.844Z,29.13
2022-10-12T19:58:09.061Z,29.55
2022-10-12T20:01:14.639Z,28.27
2022-10-12T20:04:07.261Z,27.77
2022-10-12T20:06:57.330Z,30.00
2022-10-12T20:09:45.269Z,30.05
2022-10-12T20:12:34.122Z,27.98
2022-10-12T20:15:22.062Z,31.17
2022-10-12T20:18:10.400Z,29.33
2022-10-12T20:20:58.730Z,28.88
2022-10-12T20:23:47.554Z,30.95
2022-10-12T20:26:35.498Z,30.77
2022-10-12T20:29:23.425Z,29.73
2022-10-12T20:32:11.484Z,28.13
2022-10-12T20:34:59.497Z,30.77
2022-10-12T20:37:47.428Z,27.50
2022-10-12T20:40:38.408Z,29.10
2022-10-12T20:43:26.358Z,30.13
2022-10-12T20:46:17.487Z,28.88
2022-10-12T20:49:05.508Z,29.15
2022-10-12T20:52:02.482Z,30.42
2022-10-12T20:55:00.930Z,29.40
2022-10-12T20:57:54.690Z,28.95
2022-10-12T21:00:43.103Z,29.65
2022-10-12T21:03:37.242Z,31.25
2022-10-12T21:06:33.083Z,29.67
2022-10-12T21:09:21.333Z,29.02
2022-10-12T21:12:09.718Z,30.00
2022-10-12T21:14:57.630Z,29.10
2022-10-12T21:17:46.904Z,30.58
2022-10-12T21:20:37.371Z,29.13
2022-10-12T21:23:27.046Z,29.60
2022-10-12T21:26:17.975Z,28.25
2022-10-12T21:29:06.791Z,29.08
2022-10-12T21:31:55.110Z,26.38
2022-10-12T21:34:43.134Z,26.67
2022-10-12T21:37:31.270Z,27.90
2022-10-12T21:40:19.188Z,28.88
2022-10-12T21:43:07.239Z,28.23
2022-10-12T21:45:55.311Z,27.77
2022-10-12T21:48:43.289Z,28.23
2022-10-12T21:51:34.445Z,29.30
2022-10-12T21:54:22.382Z,28.15
2022-10-12T21:57:10.574Z,28.02
2022-10-12T21:59:58.549Z,27.20
2022-10-12T22:02:46.897Z,29.45
2022-10-12T22:05:42.274Z,31.13
2022-10-12T22:08:30.271Z,30.02
2022-10-12T22:11:18.887Z,27.67
2022-10-12T22:14:09.688Z,28.75
2022-10-12T22:16:57.634Z,29.73
2022-10-12T22:19:45.539Z,28.35
2022-10-12T22:22:33.760Z,29.25
2022-10-12T22:25:21.775Z,26.52
2022-10-12T22:28:09.992Z,27.20
2022-10-12T22:30:57.824Z,25.83
2022-10-12T22:33:46.219Z,26.83
2022-10-12T22:36:34.259Z,25.77
2022-10-12T22:39:22.343Z,27.20
2022-10-12T22:42:10.286Z,27.73
2022-10-12T22:44:58.129Z,27.70
2022-10-12T22:47:46.252Z,26.80
2022-10-12T22:50:34.299Z,27.25
2022-10-12T22:53:24.995Z,31.50
2022-10-12T22:56:18.626Z,31.45
2022-10-12T22:59:07.224Z,32.17
2022-10-12T23:01:55.236Z,31.45
2022-10-12T23:04:43.609Z,33.90
2022-10-12T23:07:31.578Z,31.33
2022-10-12T23:10:20.065Z,30.80
2022-10-12T23:13:08.213Z,33.40
2022-10-12T23:15:56.109Z,30.95
2022-10-12T23:18:44.375Z,32.75
2022-10-12T23:21:34.878Z,30.40
2022-10-12T23:24:22.826Z,33.13
2022-10-12T23:27:10.659Z,29.98
2022-10-12T23:29:58.599Z,28.55
2022-10-12T23:32:46.706Z,26.67
2022-10-12T23:35:34.626Z,27.02
2022-10-12T23:38:22.594Z,30.45
2022-10-12T23:41:11.931Z,26.02
2022-10-12T23:43:59.782Z,24.77
2022-10-12T23:46:47.814Z,26.92
2022-10-12T23:49:35.671Z,24.92
2022-10-12T23:52:23.662Z,27.40
2022-10-12T23:55:11.547Z,26.95
2022-10-12T23:57:59.457Z,22.00
